sensor_id;sensor_type;location;lat;lon;timestamp;P1;durP1;ratioP1;P2;durP2;ratioP2
54983;SDS011;40884;53.562;9.940;2022-07-18T00:00:55;3.93;;;2.70;;
54983;SDS011;40884;53.562;9.940;2022-07-18T00:01:56;4.17;;;2.83;;
54983;SDS011;40884;53.562;9.940;2022-07-18T00:02:56;3.97;;;2.40;;
54983;SDS011;40884;53.562;9.940;2022-07-18T00:03:57;2.97;;;2.50;;
54983;SDS011;40884;53.562;9.940;2022-07-18T00:04:57;3.77;;;2.70;;
54983;SDS011;40884;53.562;9.940;2022-07-18T00:05:57;4.30;;;2.70;;
54983;SDS011;40884;53.562;9.940;2022-07-18T00:06:57;3.27;;;2.60;;
54983;SDS011;40884;53.562;9.940;2022-07-18T00:07:57;4.00;;;2.50;;
54983;SDS011;40884;53.562;9.940;2022-07-18T00:08:57;3.00;;;2.57;;
54983;SDS011;40884;53.562;9.940;2022-07-18T00:09:57;4.23;;;2.80;;
54983;SDS011;40884;53.562;9.940;2022-07-18T00:10:58;3.93;;;2.77;;
54983;SDS011;40884;53.562;9.940;2022-07-18T00:11:58;3.07;;;2.40;;
54983;SDS011;40884;53.562;9.940;2022-07-18T00:12:58;2.90;;;2.40;;
54983;SDS011;40884;53.562;9.940;2022-07-18T00:13:58;3.10;;;2.67;;
54983;SDS011;40884;53.562;9.940;2022-07-18T00:14:58;5.33;;;2.60;;
54983;SDS011;40884;53.562;9.940;2022-07-18T00:15:58;5.13;;;2.57;;
54983;SDS011;40884;53.562;9.940;2022-07-18T00:16:58;4.27;;;2.60;;
54983;SDS011;40884;53.562;9.940;2022-07-18T00:17:58;5.10;;;2.80;;
54983;SDS011;40884;53.562;9.940;2022-07-18T00:18:59;5.93;;;3.00;;
54983;SDS011;40884;53.562;9.940;2022-07-18T00:19:59;3.67;;;2.40;;
54983;SDS011;40884;53.562;9.940;2022-07-18T00:20:59;5.07;;;2.63;;
54983;SDS011;40884;53.562;9.940;2022-07-18T00:21:59;4.77;;;2.60;;
54983;SDS011;40884;53.562;9.940;2022-07-18T00:22:59;4.97;;;2.80;;
54983;SDS011;40884;53.562;9.940;2022-07-18T00:24:00;4.90;;;2.87;;
54983;SDS011;40884;53.562;9.940;2022-07-18T00:25:00;4.57;;;2.43;;
54983;SDS011;40884;53.562;9.940;2022-07-18T00:26:00;2.93;;;2.30;;
54983;SDS011;40884;53.562;9.940;2022-07-18T00:27:00;6.57;;;2.47;;
54983;SDS011;40884;53.562;9.940;2022-07-18T00:28:00;4.17;;;2.77;;
54983;SDS011;40884;53.562;9.940;2022-07-18T00:29:01;4.13;;;2.67;;
54983;SDS011;40884;53.562;9.940;2022-07-18T00:30:01;4.23;;;2.73;;
54983;SDS011;40884;53.562;9.940;2022-07-18T00:31:02;5.03;;;2.67;;
54983;SDS011;40884;53.562;9.940;2022-07-18T00:32:03;5.97;;;2.63;;
54983;SDS011;40884;53.562;9.940;2022-07-18T00:33:03;5.33;;;2.83;;
54983;SDS011;40884;53.562;9.940;2022-07-18T00:34:03;4.87;;;2.93;;
54983;SDS011;40884;53.562;9.940;2022-07-18T00:35:04;4.03;;;2.40;;
54983;SDS011;40884;53.562;9.940;2022-07-18T00:36:04;3.67;;;2.50;;
54983;SDS011;40884;53.562;9.940;2022-07-18T00:37:05;7.67;;;2.83;;
54983;SDS011;40884;53.562;9.940;2022-07-18T00:38:05;5.87;;;3.13;;
54983;SDS011;40884;53.562;9.940;2022-07-18T00:39:05;7.77;;;3.30;;
54983;SDS011;40884;53.562;9.940;2022-07-18T00:40:05;6.47;;;3.13;;
54983;SDS011;40884;53.562;9.940;2022-07-18T00:41:05;7.13;;;3.30;;
54983;SDS011;40884;53.562;9.940;2022-07-18T00:42:06;8.97;;;3.63;;
54983;SDS011;40884;53.562;9.940;2022-07-18T00:43:06;5.63;;;3.20;;
54983;SDS011;40884;53.562;9.940;2022-07-18T00:44:06;8.00;;;3.40;;
54983;SDS011;40884;53.562;9.940;2022-07-18T00:45:15;7.43;;;3.20;;
54983;SDS011;40884;53.562;9.940;2022-07-18T00:46:15;6.80;;;3.03;;
54983;SDS011;40884;53.562;9.940;2022-07-18T00:47:15;6.87;;;3.40;;
54983;SDS011;40884;53.562;9.940;2022-07-18T00:48:15;6.30;;;3.50;;
54983;SDS011;40884;53.562;9.940;2022-07-18T00:49:16;10.10;;;3.30;;
54983;SDS011;40884;53.562;9.940;2022-07-18T00:50:16;5.63;;;3.20;;
54983;SDS011;40884;53.562;9.940;2022-07-18T00:51:16;4.13;;;3.37;;
54983;SDS011;40884;53.562;9.940;2022-07-18T00:52:17;7.87;;;3.97;;
54983;SDS011;40884;53.562;9.940;2022-07-18T00:53:17;6.30;;;3.60;;
54983;SDS011;40884;53.562;9.940;2022-07-18T00:54:17;5.43;;;3.20;;
54983;SDS011;40884;53.562;9.940;2022-07-18T00:55:18;5.80;;;3.27;;
54983;SDS011;40884;53.562;9.940;2022-07-18T00:56:19;4.63;;;3.37;;
54983;SDS011;40884;53.562;9.940;2022-07-18T00:57:19;5.40;;;3.57;;
54983;SDS011;40884;53.562;9.940;2022-07-18T00:58:19;4.63;;;3.57;;
54983;SDS011;40884;53.562;9.940;2022-07-18T00:59:20;6.03;;;3.67;;
54983;SDS011;40884;53.562;9.940;2022-07-18T01:00:20;6.33;;;3.43;;
54983;SDS011;40884;53.562;9.940;2022-07-18T01:01:20;5.10;;;3.40;;
54983;SDS011;40884;53.562;9.940;2022-07-18T01:02:20;5.80;;;3.47;;
54983;SDS011;40884;53.562;9.940;2022-07-18T01:03:20;3.93;;;3.30;;
54983;SDS011;40884;53.562;9.940;2022-07-18T01:04:22;5.17;;;3.77;;
54983;SDS011;40884;53.562;9.940;2022-07-18T01:05:22;4.70;;;3.73;;
54983;SDS011;40884;53.562;9.940;2022-07-18T01:06:22;5.93;;;3.73;;
54983;SDS011;40884;53.562;9.940;2022-07-18T01:07:23;4.40;;;3.10;;
54983;SDS011;40884;53.562;9.940;2022-07-18T01:08:23;4.97;;;3.20;;
54983;SDS011;40884;53.562;9.940;2022-07-18T01:09:23;3.97;;;2.97;;
54983;SDS011;40884;53.562;9.940;2022-07-18T01:10:23;4.20;;;3.47;;
54983;SDS011;40884;53.562;9.940;2022-07-18T01:11:23;4.80;;;3.37;;
54983;SDS011;40884;53.562;9.940;2022-07-18T01:12:25;7.50;;;3.70;;
54983;SDS011;40884;53.562;9.940;2022-07-18T01:13:25;7.17;;;3.50;;
54983;SDS011;40884;53.562;9.940;2022-07-18T01:14:25;4.20;;;3.23;;
54983;SDS011;40884;53.562;9.940;2022-07-18T01:15:25;5.07;;;3.30;;
54983;SDS011;40884;53.562;9.940;2022-07-18T01:16:25;4.67;;;3.23;;
54983;SDS011;40884;53.562;9.940;2022-07-18T01:17:26;5.07;;;3.17;;
54983;SDS011;40884;53.562;9.940;2022-07-18T01:18:26;6.57;;;3.50;;
54983;SDS011;40884;53.562;9.940;2022-07-18T01:19:26;5.00;;;3.20;;
54983;SDS011;40884;53.562;9.940;2022-07-18T01:20:29;3.50;;;3.00;;
54983;SDS011;40884;53.562;9.940;2022-07-18T01:21:30;4.30;;;3.20;;
54983;SDS011;40884;53.562;9.940;2022-07-18T01:22:30;4.43;;;3.03;;
54983;SDS011;40884;53.562;9.940;2022-07-18T01:23:31;7.63;;;3.77;;
54983;SDS011;40884;53.562;9.940;2022-07-18T01:24:31;8.97;;;3.40;;
54983;SDS011;40884;53.562;9.940;2022-07-18T01:25:31;5.20;;;3.13;;
54983;SDS011;40884;53.562;9.940;2022-07-18T01:26:31;6.43;;;3.27;;
54983;SDS011;40884;53.562;9.940;2022-07-18T01:27:31;11.20;;;3.77;;
54983;SDS011;40884;53.562;9.940;2022-07-18T01:28:31;4.00;;;3.00;;
54983;SDS011;40884;53.562;9.940;2022-07-18T01:29:32;7.57;;;3.33;;
54983;SDS011;40884;53.562;9.940;2022-07-18T01:30:32;5.97;;;2.83;;
54983;SDS011;40884;53.562;9.940;2022-07-18T01:31:32;11.37;;;3.70;;
54983;SDS011;40884;53.562;9.940;2022-07-18T01:32:32;5.87;;;3.10;;
54983;SDS011;40884;53.562;9.940;2022-07-18T01:33:33;5.90;;;3.30;;
54983;SDS011;40884;53.562;9.940;2022-07-18T01:34:33;8.97;;;3.30;;
54983;SDS011;40884;53.562;9.940;2022-07-18T01:35:33;5.83;;;3.13;;
54983;SDS011;40884;53.562;9.940;2022-07-18T01:36:33;5.07;;;3.20;;
54983;SDS011;40884;53.562;9.940;2022-07-18T01:37:33;4.40;;;2.80;;
54983;SDS011;40884;53.562;9.940;2022-07-18T01:38:34;5.97;;;3.10;;
54983;SDS011;40884;53.562;9.940;2022-07-18T01:39:34;8.70;;;3.20;;
54983;SDS011;40884;53.562;9.940;2022-07-18T01:40:34;8.27;;;3.37;;
54983;SDS011;40884;53.562;9.940;2022-07-18T01:41:34;7.53;;;3.50;;
54983;SDS011;40884;53.562;9.940;2022-07-18T01:42:35;5.90;;;3.73;;
54983;SDS011;40884;53.562;9.940;2022-07-18T01:43:39;8.63;;;4.20;;
54983;SDS011;40884;53.562;9.940;2022-07-18T01:44:39;6.93;;;3.87;;
54983;SDS011;40884;53.562;9.940;2022-07-18T01:45:39;9.33;;;4.00;;
54983;SDS011;40884;53.562;9.940;2022-07-18T01:46:39;6.63;;;3.90;;
54983;SDS011;40884;53.562;9.940;2022-07-18T01:47:39;9.00;;;3.90;;
54983;SDS011;40884;53.562;9.940;2022-07-18T01:48:40;10.63;;;4.17;;
54983;SDS011;40884;53.562;9.940;2022-07-18T01:49:40;11.13;;;4.20;;
54983;SDS011;40884;53.562;9.940;2022-07-18T01:50:40;9.23;;;3.93;;
54983;SDS011;40884;53.562;9.940;2022-07-18T01:51:44;8.07;;;3.83;;
54983;SDS011;40884;53.562;9.940;2022-07-18T01:52:44;8.07;;;4.10;;
54983;SDS011;40884;53.562;9.940;2022-07-18T01:53:52;8.73;;;4.03;;
54983;SDS011;40884;53.562;9.940;2022-07-18T01:54:52;9.60;;;3.90;;
54983;SDS011;40884;53.562;9.940;2022-07-18T01:55:52;11.93;;;3.90;;
54983;SDS011;40884;53.562;9.940;2022-07-18T01:56:53;10.73;;;3.90;;
54983;SDS011;40884;53.562;9.940;2022-07-18T01:57:53;8.30;;;3.63;;
54983;SDS011;40884;53.562;9.940;2022-07-18T01:58:53;9.33;;;3.60;;
54983;SDS011;40884;53.562;9.940;2022-07-18T01:59:53;8.27;;;3.63;;
54983;SDS011;40884;53.562;9.940;2022-07-18T02:00:54;6.30;;;3.90;;
54983;SDS011;40884;53.562;9.940;2022-07-18T02:01:54;7.80;;;3.70;;
54983;SDS011;40884;53.562;9.940;2022-07-18T02:02:54;8.97;;;3.17;;
54983;SDS011;40884;53.562;9.940;2022-07-18T02:03:54;7.97;;;3.40;;
54983;SDS011;40884;53.562;9.940;2022-07-18T02:04:54;7.13;;;3.30;;
54983;SDS011;40884;53.562;9.940;2022-07-18T02:05:54;10.93;;;3.60;;
54983;SDS011;40884;53.562;9.940;2022-07-18T02:06:54;9.30;;;3.50;;
54983;SDS011;40884;53.562;9.940;2022-07-18T02:07:54;7.70;;;3.30;;
54983;SDS011;40884;53.562;9.940;2022-07-18T02:08:55;9.63;;;3.43;;
54983;SDS011;40884;53.562;9.940;2022-07-18T02:09:55;6.33;;;3.40;;
54983;SDS011;40884;53.562;9.940;2022-07-18T02:10:55;6.47;;;3.47;;
54983;SDS011;40884;53.562;9.940;2022-07-18T02:11:55;6.80;;;3.23;;
54983;SDS011;40884;53.562;9.940;2022-07-18T02:12:56;5.73;;;3.03;;
54983;SDS011;40884;53.562;9.940;2022-07-18T02:13:56;8.83;;;3.13;;
54983;SDS011;40884;53.562;9.940;2022-07-18T02:14:56;8.33;;;3.20;;
54983;SDS011;40884;53.562;9.940;2022-07-18T02:15:56;7.63;;;3.10;;
54983;SDS011;40884;53.562;9.940;2022-07-18T02:16:56;8.67;;;3.90;;
54983;SDS011;40884;53.562;9.940;2022-07-18T02:17:56;7.23;;;2.83;;
54983;SDS011;40884;53.562;9.940;2022-07-18T02:18:56;8.70;;;3.80;;
54983;SDS011;40884;53.562;9.940;2022-07-18T02:19:57;5.97;;;3.30;;
54983;SDS011;40884;53.562;9.940;2022-07-18T02:20:57;9.77;;;3.37;;
54983;SDS011;40884;53.562;9.940;2022-07-18T02:21:57;7.50;;;3.53;;
54983;SDS011;40884;53.562;9.940;2022-07-18T02:22:57;8.03;;;3.40;;
54983;SDS011;40884;53.562;9.940;2022-07-18T02:23:57;5.67;;;3.17;;
54983;SDS011;40884;53.562;9.940;2022-07-18T02:24:57;6.77;;;3.10;;
54983;SDS011;40884;53.562;9.940;2022-07-18T02:25:57;7.23;;;3.53;;
54983;SDS011;40884;53.562;9.940;2022-07-18T02:26:58;6.10;;;3.10;;
54983;SDS011;40884;53.562;9.940;2022-07-18T02:27:58;4.57;;;3.03;;
54983;SDS011;40884;53.562;9.940;2022-07-18T02:28:58;11.70;;;3.30;;
54983;SDS011;40884;53.562;9.940;2022-07-18T02:29:58;6.83;;;3.13;;
54983;SDS011;40884;53.562;9.940;2022-07-18T02:30:58;5.40;;;3.07;;
54983;SDS011;40884;53.562;9.940;2022-07-18T02:31:58;4.20;;;2.73;;
54983;SDS011;40884;53.562;9.940;2022-07-18T02:32:59;6.37;;;3.23;;
54983;SDS011;40884;53.562;9.940;2022-07-18T02:33:59;5.63;;;3.00;;
54983;SDS011;40884;53.562;9.940;2022-07-18T02:34:59;4.87;;;2.90;;
54983;SDS011;40884;53.562;9.940;2022-07-18T02:35:59;6.23;;;2.50;;
54983;SDS011;40884;53.562;9.940;2022-07-18T02:36:59;6.47;;;2.93;;
54983;SDS011;40884;53.562;9.940;2022-07-18T02:38:00;5.60;;;2.87;;
54983;SDS011;40884;53.562;9.940;2022-07-18T02:39:00;8.30;;;3.30;;
54983;SDS011;40884;53.562;9.940;2022-07-18T02:40:00;5.27;;;2.80;;
54983;SDS011;40884;53.562;9.940;2022-07-18T02:41:00;8.57;;;3.53;;
54983;SDS011;40884;53.562;9.940;2022-07-18T02:42:00;5.73;;;2.97;;
54983;SDS011;40884;53.562;9.940;2022-07-18T02:43:00;5.53;;;2.90;;
54983;SDS011;40884;53.562;9.940;2022-07-18T02:44:01;6.10;;;3.07;;
54983;SDS011;40884;53.562;9.940;2022-07-18T02:45:02;6.67;;;3.07;;
54983;SDS011;40884;53.562;9.940;2022-07-18T02:46:02;5.23;;;3.07;;
54983;SDS011;40884;53.562;9.940;2022-07-18T02:47:03;7.37;;;2.87;;
54983;SDS011;40884;53.562;9.940;2022-07-18T02:48:03;5.60;;;3.47;;
54983;SDS011;40884;53.562;9.940;2022-07-18T02:49:03;5.33;;;3.17;;
54983;SDS011;40884;53.562;9.940;2022-07-18T02:50:04;3.73;;;2.53;;
54983;SDS011;40884;53.562;9.940;2022-07-18T02:51:04;6.70;;;2.90;;
54983;SDS011;40884;53.562;9.940;2022-07-18T02:52:05;5.13;;;3.00;;
54983;SDS011;40884;53.562;9.940;2022-07-18T02:53:06;6.93;;;2.90;;
54983;SDS011;40884;53.562;9.940;2022-07-18T02:54:06;4.40;;;3.00;;
54983;SDS011;40884;53.562;9.940;2022-07-18T02:55:07;4.13;;;3.00;;
54983;SDS011;40884;53.562;9.940;2022-07-18T02:56:07;3.97;;;2.70;;
54983;SDS011;40884;53.562;9.940;2022-07-18T02:57:07;4.67;;;2.73;;
54983;SDS011;40884;53.562;9.940;2022-07-18T02:58:07;6.23;;;3.10;;
54983;SDS011;40884;53.562;9.940;2022-07-18T02:59:07;5.50;;;3.30;;
54983;SDS011;40884;53.562;9.940;2022-07-18T03:00:11;6.93;;;3.20;;
54983;SDS011;40884;53.562;9.940;2022-07-18T03:01:12;4.43;;;3.00;;
54983;SDS011;40884;53.562;9.940;2022-07-18T03:02:12;3.70;;;2.80;;
54983;SDS011;40884;53.562;9.940;2022-07-18T03:03:12;4.83;;;2.80;;
54983;SDS011;40884;53.562;9.940;2022-07-18T03:04:12;4.07;;;2.77;;
54983;SDS011;40884;53.562;9.940;2022-07-18T03:05:13;4.73;;;2.70;;
54983;SDS011;40884;53.562;9.940;2022-07-18T03:06:13;4.07;;;2.83;;
54983;SDS011;40884;53.562;9.940;2022-07-18T03:07:13;4.10;;;2.80;;
54983;SDS011;40884;53.562;9.940;2022-07-18T03:08:13;6.03;;;2.87;;
54983;SDS011;40884;53.562;9.940;2022-07-18T03:09:14;4.80;;;3.13;;
54983;SDS011;40884;53.562;9.940;2022-07-18T03:10:14;3.93;;;2.80;;
54983;SDS011;40884;53.562;9.940;2022-07-18T03:11:14;5.03;;;3.03;;
54983;SDS011;40884;53.562;9.940;2022-07-18T03:12:14;5.07;;;3.30;;
54983;SDS011;40884;53.562;9.940;2022-07-18T03:13:14;4.53;;;2.73;;
54983;SDS011;40884;53.562;9.940;2022-07-18T03:14:14;4.83;;;2.90;;
54983;SDS011;40884;53.562;9.940;2022-07-18T03:15:14;3.37;;;2.97;;
54983;SDS011;40884;53.562;9.940;2022-07-18T03:16:15;3.70;;;2.87;;
54983;SDS011;40884;53.562;9.940;2022-07-18T03:17:15;7.50;;;3.30;;
54983;SDS011;40884;53.562;9.940;2022-07-18T03:18:15;3.43;;;2.73;;
54983;SDS011;40884;53.562;9.940;2022-07-18T03:19:15;5.23;;;2.83;;
54983;SDS011;40884;53.562;9.940;2022-07-18T03:20:15;3.53;;;2.60;;
54983;SDS011;40884;53.562;9.940;2022-07-18T03:21:16;4.10;;;2.90;;
54983;SDS011;40884;53.562;9.940;2022-07-18T03:22:16;4.40;;;2.87;;
54983;SDS011;40884;53.562;9.940;2022-07-18T03:23:16;5.37;;;2.63;;
54983;SDS011;40884;53.562;9.940;2022-07-18T03:24:16;3.40;;;2.80;;
54983;SDS011;40884;53.562;9.940;2022-07-18T03:25:16;4.27;;;2.50;;
54983;SDS011;40884;53.562;9.940;2022-07-18T03:26:16;7.57;;;3.30;;
54983;SDS011;40884;53.562;9.940;2022-07-18T03:27:18;5.10;;;2.83;;
54983;SDS011;40884;53.562;9.940;2022-07-18T03:28:18;5.07;;;3.10;;
54983;SDS011;40884;53.562;9.940;2022-07-18T03:29:18;5.00;;;2.87;;
54983;SDS011;40884;53.562;9.940;2022-07-18T03:30:18;3.83;;;2.87;;
54983;SDS011;40884;53.562;9.940;2022-07-18T03:31:18;5.87;;;3.00;;
54983;SDS011;40884;53.562;9.940;2022-07-18T03:32:19;4.97;;;2.90;;
54983;SDS011;40884;53.562;9.940;2022-07-18T03:33:19;3.00;;;2.57;;
54983;SDS011;40884;53.562;9.940;2022-07-18T03:34:19;6.87;;;3.20;;
54983;SDS011;40884;53.562;9.940;2022-07-18T03:35:19;7.07;;;2.93;;
54983;SDS011;40884;53.562;9.940;2022-07-18T03:36:19;4.23;;;3.00;;
54983;SDS011;40884;53.562;9.940;2022-07-18T03:37:19;4.10;;;3.03;;
54983;SDS011;40884;53.562;9.940;2022-07-18T03:38:19;5.37;;;3.27;;
54983;SDS011;40884;53.562;9.940;2022-07-18T03:39:19;5.80;;;3.63;;
54983;SDS011;40884;53.562;9.940;2022-07-18T03:40:19;4.37;;;3.43;;
54983;SDS011;40884;53.562;9.940;2022-07-18T03:41:20;5.37;;;3.70;;
54983;SDS011;40884;53.562;9.940;2022-07-18T03:42:20;6.07;;;3.63;;
54983;SDS011;40884;53.562;9.940;2022-07-18T03:43:20;6.93;;;3.80;;
54983;SDS011;40884;53.562;9.940;2022-07-18T03:44:20;5.30;;;3.70;;
54983;SDS011;40884;53.562;9.940;2022-07-18T03:45:20;3.67;;;3.30;;
54983;SDS011;40884;53.562;9.940;2022-07-18T03:46:20;4.57;;;3.83;;
54983;SDS011;40884;53.562;9.940;2022-07-18T03:47:21;4.47;;;3.60;;
54983;SDS011;40884;53.562;9.940;2022-07-18T03:48:21;4.53;;;3.30;;
54983;SDS011;40884;53.562;9.940;2022-07-18T03:49:21;4.90;;;3.87;;
54983;SDS011;40884;53.562;9.940;2022-07-18T03:50:21;4.83;;;3.33;;
54983;SDS011;40884;53.562;9.940;2022-07-18T03:51:21;5.43;;;3.40;;
54983;SDS011;40884;53.562;9.940;2022-07-18T03:52:21;5.73;;;3.73;;
54983;SDS011;40884;53.562;9.940;2022-07-18T03:53:21;4.40;;;3.33;;
54983;SDS011;40884;53.562;9.940;2022-07-18T03:54:22;5.23;;;3.60;;
54983;SDS011;40884;53.562;9.940;2022-07-18T03:55:22;5.50;;;3.33;;
54983;SDS011;40884;53.562;9.940;2022-07-18T03:56:23;6.30;;;3.67;;
54983;SDS011;40884;53.562;9.940;2022-07-18T03:57:23;5.70;;;3.63;;
54983;SDS011;40884;53.562;9.940;2022-07-18T03:58:23;7.00;;;3.80;;
54983;SDS011;40884;53.562;9.940;2022-07-18T03:59:23;5.40;;;3.90;;
54983;SDS011;40884;53.562;9.940;2022-07-18T04:00:23;5.87;;;3.53;;
54983;SDS011;40884;53.562;9.940;2022-07-18T04:01:23;3.80;;;3.27;;
54983;SDS011;40884;53.562;9.940;2022-07-18T04:02:23;5.87;;;3.43;;
54983;SDS011;40884;53.562;9.940;2022-07-18T04:03:23;7.63;;;3.60;;
54983;SDS011;40884;53.562;9.940;2022-07-18T04:04:24;5.53;;;4.13;;
54983;SDS011;40884;53.562;9.940;2022-07-18T04:05:24;6.20;;;3.23;;
54983;SDS011;40884;53.562;9.940;2022-07-18T04:06:24;3.43;;;3.10;;
54983;SDS011;40884;53.562;9.940;2022-07-18T04:07:24;7.63;;;4.03;;
54983;SDS011;40884;53.562;9.940;2022-07-18T04:08:24;5.83;;;3.63;;
54983;SDS011;40884;53.562;9.940;2022-07-18T04:09:25;5.47;;;3.50;;
54983;SDS011;40884;53.562;9.940;2022-07-18T04:10:25;7.43;;;3.37;;
54983;SDS011;40884;53.562;9.940;2022-07-18T04:11:25;4.10;;;3.20;;
54983;SDS011;40884;53.562;9.940;2022-07-18T04:12:25;5.57;;;3.60;;
54983;SDS011;40884;53.562;9.940;2022-07-18T04:13:25;6.73;;;3.20;;
54983;SDS011;40884;53.562;9.940;2022-07-18T04:14:26;7.37;;;3.60;;
54983;SDS011;40884;53.562;9.940;2022-07-18T04:15:26;5.40;;;3.87;;
54983;SDS011;40884;53.562;9.940;2022-07-18T04:16:26;6.47;;;3.97;;
54983;SDS011;40884;53.562;9.940;2022-07-18T04:17:26;5.07;;;3.60;;
54983;SDS011;40884;53.562;9.940;2022-07-18T04:18:27;6.67;;;3.33;;
54983;SDS011;40884;53.562;9.940;2022-07-18T04:19:27;7.87;;;3.77;;
54983;SDS011;40884;53.562;9.940;2022-07-18T04:20:27;5.83;;;3.20;;
54983;SDS011;40884;53.562;9.940;2022-07-18T04:21:27;5.00;;;3.67;;
54983;SDS011;40884;53.562;9.940;2022-07-18T04:22:27;5.87;;;3.50;;
54983;SDS011;40884;53.562;9.940;2022-07-18T04:23:27;4.57;;;3.57;;
54983;SDS011;40884;53.562;9.940;2022-07-18T04:24:27;4.77;;;3.73;;
54983;SDS011;40884;53.562;9.940;2022-07-18T04:25:29;4.67;;;4.10;;
54983;SDS011;40884;53.562;9.940;2022-07-18T04:26:29;5.23;;;3.47;;
54983;SDS011;40884;53.562;9.940;2022-07-18T04:27:29;4.13;;;3.50;;
54983;SDS011;40884;53.562;9.940;2022-07-18T04:28:29;6.50;;;3.70;;
54983;SDS011;40884;53.562;9.940;2022-07-18T04:29:30;8.17;;;4.30;;
54983;SDS011;40884;53.562;9.940;2022-07-18T04:30:30;4.90;;;3.70;;
54983;SDS011;40884;53.562;9.940;2022-07-18T04:31:30;4.80;;;4.03;;
54983;SDS011;40884;53.562;9.940;2022-07-18T04:32:30;4.87;;;3.70;;
54983;SDS011;40884;53.562;9.940;2022-07-18T04:33:30;5.13;;;3.53;;
54983;SDS011;40884;53.562;9.940;2022-07-18T04:34:31;4.13;;;3.53;;
54983;SDS011;40884;53.562;9.940;2022-07-18T04:35:31;4.87;;;3.73;;
54983;SDS011;40884;53.562;9.940;2022-07-18T04:36:31;5.30;;;3.90;;
54983;SDS011;40884;53.562;9.940;2022-07-18T04:37:32;6.40;;;3.87;;
54983;SDS011;40884;53.562;9.940;2022-07-18T04:38:32;4.00;;;3.60;;
54983;SDS011;40884;53.562;9.940;2022-07-18T04:39:32;5.57;;;3.77;;
54983;SDS011;40884;53.562;9.940;2022-07-18T04:40:32;5.03;;;3.73;;
54983;SDS011;40884;53.562;9.940;2022-07-18T04:41:32;5.13;;;3.90;;
54983;SDS011;40884;53.562;9.940;2022-07-18T04:42:33;6.03;;;3.90;;
54983;SDS011;40884;53.562;9.940;2022-07-18T04:43:33;4.73;;;3.80;;
54983;SDS011;40884;53.562;9.940;2022-07-18T04:44:33;5.37;;;4.03;;
54983;SDS011;40884;53.562;9.940;2022-07-18T04:45:34;6.20;;;3.57;;
54983;SDS011;40884;53.562;9.940;2022-07-18T04:46:34;5.70;;;3.80;;
54983;SDS011;40884;53.562;9.940;2022-07-18T04:47:35;5.60;;;3.73;;
54983;SDS011;40884;53.562;9.940;2022-07-18T04:48:35;4.77;;;3.57;;
54983;SDS011;40884;53.562;9.940;2022-07-18T04:49:35;6.37;;;4.00;;
54983;SDS011;40884;53.562;9.940;2022-07-18T04:50:35;5.87;;;3.80;;
54983;SDS011;40884;53.562;9.940;2022-07-18T04:51:35;5.00;;;3.93;;
54983;SDS011;40884;53.562;9.940;2022-07-18T04:52:39;4.87;;;3.50;;
54983;SDS011;40884;53.562;9.940;2022-07-18T04:53:39;5.13;;;3.63;;
54983;SDS011;40884;53.562;9.940;2022-07-18T04:54:40;7.77;;;4.00;;
54983;SDS011;40884;53.562;9.940;2022-07-18T04:55:40;4.87;;;3.73;;
54983;SDS011;40884;53.562;9.940;2022-07-18T04:56:40;8.07;;;4.33;;
54983;SDS011;40884;53.562;9.940;2022-07-18T04:57:40;6.13;;;4.13;;
54983;SDS011;40884;53.562;9.940;2022-07-18T04:58:40;6.23;;;4.10;;
54983;SDS011;40884;53.562;9.940;2022-07-18T04:59:41;4.60;;;4.10;;
54983;SDS011;40884;53.562;9.940;2022-07-18T05:00:41;6.40;;;4.03;;
54983;SDS011;40884;53.562;9.940;2022-07-18T05:01:41;5.77;;;3.90;;
54983;SDS011;40884;53.562;9.940;2022-07-18T05:02:45;4.20;;;3.77;;
54983;SDS011;40884;53.562;9.940;2022-07-18T05:03:46;5.67;;;4.07;;
54983;SDS011;40884;53.562;9.940;2022-07-18T05:04:46;4.87;;;3.90;;
54983;SDS011;40884;53.562;9.940;2022-07-18T05:05:46;5.63;;;3.90;;
54983;SDS011;40884;53.562;9.940;2022-07-18T05:06:46;6.40;;;4.63;;
54983;SDS011;40884;53.562;9.940;2022-07-18T05:07:46;4.87;;;3.43;;
54983;SDS011;40884;53.562;9.940;2022-07-18T05:08:47;6.87;;;4.20;;
54983;SDS011;40884;53.562;9.940;2022-07-18T05:09:47;5.73;;;4.03;;
54983;SDS011;40884;53.562;9.940;2022-07-18T05:10:47;4.77;;;3.97;;
54983;SDS011;40884;53.562;9.940;2022-07-18T05:11:47;6.90;;;4.20;;
54983;SDS011;40884;53.562;9.940;2022-07-18T05:12:48;7.43;;;4.13;;
54983;SDS011;40884;53.562;9.940;2022-07-18T05:13:48;5.70;;;4.57;;
54983;SDS011;40884;53.562;9.940;2022-07-18T05:14:49;7.00;;;5.00;;
54983;SDS011;40884;53.562;9.940;2022-07-18T05:15:50;8.87;;;4.87;;
54983;SDS011;40884;53.562;9.940;2022-07-18T05:16:51;8.30;;;4.37;;
54983;SDS011;40884;53.562;9.940;2022-07-18T05:17:51;5.57;;;4.57;;
54983;SDS011;40884;53.562;9.940;2022-07-18T05:18:51;7.27;;;4.57;;
54983;SDS011;40884;53.562;9.940;2022-07-18T05:19:51;7.13;;;4.23;;
54983;SDS011;40884;53.562;9.940;2022-07-18T05:20:51;5.83;;;4.33;;
54983;SDS011;40884;53.562;9.940;2022-07-18T05:21:52;5.57;;;4.27;;
54983;SDS011;40884;53.562;9.940;2022-07-18T05:22:52;7.73;;;4.20;;
54983;SDS011;40884;53.562;9.940;2022-07-18T05:23:52;6.67;;;4.53;;
54983;SDS011;40884;53.562;9.940;2022-07-18T05:24:52;7.90;;;4.57;;
54983;SDS011;40884;53.562;9.940;2022-07-18T05:25:52;6.57;;;4.40;;
54983;SDS011;40884;53.562;9.940;2022-07-18T05:26:52;7.83;;;4.20;;
54983;SDS011;40884;53.562;9.940;2022-07-18T05:27:53;9.60;;;4.17;;
54983;SDS011;40884;53.562;9.940;2022-07-18T05:28:53;4.90;;;4.13;;
54983;SDS011;40884;53.562;9.940;2022-07-18T05:29:53;8.50;;;4.73;;
54983;SDS011;40884;53.562;9.940;2022-07-18T05:30:53;10.90;;;5.10;;
54983;SDS011;40884;53.562;9.940;2022-07-18T05:31:53;6.07;;;4.40;;
54983;SDS011;40884;53.562;9.940;2022-07-18T05:32:53;6.77;;;4.77;;
54983;SDS011;40884;53.562;9.940;2022-07-18T05:33:54;8.87;;;4.53;;
54983;SDS011;40884;53.562;9.940;2022-07-18T05:34:54;10.77;;;4.73;;
54983;SDS011;40884;53.562;9.940;2022-07-18T05:35:54;14.10;;;5.47;;
54983;SDS011;40884;53.562;9.940;2022-07-18T05:36:54;16.10;;;5.40;;
54983;SDS011;40884;53.562;9.940;2022-07-18T05:37:54;14.37;;;5.27;;
54983;SDS011;40884;53.562;9.940;2022-07-18T05:38:54;11.97;;;5.20;;
54983;SDS011;40884;53.562;9.940;2022-07-18T05:39:54;15.80;;;5.57;;
54983;SDS011;40884;53.562;9.940;2022-07-18T05:40:55;13.70;;;6.13;;
54983;SDS011;40884;53.562;9.940;2022-07-18T05:41:55;17.37;;;6.63;;
54983;SDS011;40884;53.562;9.940;2022-07-18T05:42:55;19.20;;;6.60;;
54983;SDS011;40884;53.562;9.940;2022-07-18T05:43:55;14.20;;;5.83;;
54983;SDS011;40884;53.562;9.940;2022-07-18T05:44:55;15.50;;;6.80;;
54983;SDS011;40884;53.562;9.940;2022-07-18T05:45:55;20.90;;;7.07;;
54983;SDS011;40884;53.562;9.940;2022-07-18T05:46:55;14.80;;;6.77;;
54983;SDS011;40884;53.562;9.940;2022-07-18T05:47:56;20.13;;;7.33;;
54983;SDS011;40884;53.562;9.940;2022-07-18T05:48:56;19.33;;;6.97;;
54983;SDS011;40884;53.562;9.940;2022-07-18T05:49:56;20.67;;;7.90;;
54983;SDS011;40884;53.562;9.940;2022-07-18T05:50:56;24.80;;;8.00;;
54983;SDS011;40884;53.562;9.940;2022-07-18T05:51:56;25.43;;;7.70;;
54983;SDS011;40884;53.562;9.940;2022-07-18T05:52:56;20.33;;;7.57;;
54983;SDS011;40884;53.562;9.940;2022-07-18T05:53:56;19.27;;;7.07;;
54983;SDS011;40884;53.562;9.940;2022-07-18T05:54:56;13.00;;;6.60;;
54983;SDS011;40884;53.562;9.940;2022-07-18T05:55:57;14.00;;;6.47;;
54983;SDS011;40884;53.562;9.940;2022-07-18T05:56:57;9.63;;;6.50;;
54983;SDS011;40884;53.562;9.940;2022-07-18T05:57:57;9.23;;;6.27;;
54983;SDS011;40884;53.562;9.940;2022-07-18T05:58:57;14.80;;;6.27;;
54983;SDS011;40884;53.562;9.940;2022-07-18T05:59:57;10.93;;;6.73;;
54983;SDS011;40884;53.562;9.940;2022-07-18T06:00:57;13.27;;;6.50;;
54983;SDS011;40884;53.562;9.940;2022-07-18T06:01:58;14.37;;;7.03;;
54983;SDS011;40884;53.562;9.940;2022-07-18T06:02:58;11.00;;;6.87;;